sensor_id;sensor_type;location;lat;lon;timestamp;P1;durP1;ratioP1;P2;durP2;ratioP2
73104;SDS011;61296;50.526;30.792;2024-01-15T00:05:22;21.20;;;8.40;;
73104;SDS011;61296;50.526;30.792;2024-01-15T00:20:55;18.90;;;8.45;;
73104;SDS011;61296;50.526;30.792;2024-01-15T00:36:28;20.33;;;8.32;;
73104;SDS011;61296;50.526;30.792;2024-01-15T00:52:01;22.95;;;8.30;;
73104;SDS011;61296;50.526;30.792;2024-01-15T01:07:34;24.17;;;9.70;;
73104;SDS011;61296;50.526;30.792;2024-01-15T01:23:07;22.77;;;10.07;;
73104;SDS011;61296;50.526;30.792;2024-01-15T01:38:40;19.13;;;8.45;;
73104;SDS011;61296;50.526;30.792;2024-01-15T01:54:14;20.42;;;8.85;;
73104;SDS011;61296;50.526;30.792;2024-01-15T02:09:49;17.42;;;8.20;;
73104;SDS011;61296;50.526;30.792;2024-01-15T02:25:22;21.15;;;8.52;;
73104;SDS011;61296;50.526;30.792;2024-01-15T02:40:55;20.77;;;8.95;;
73104;SDS011;61296;50.526;30.792;2024-01-15T02:56:28;18.50;;;9.18;;
73104;SDS011;61296;50.526;30.792;2024-01-15T03:12:01;22.30;;;8.93;;
73104;SDS011;61296;50.526;30.792;2024-01-15T03:27:33;22.60;;;9.52;;
73104;SDS011;61296;50.526;30.792;2024-01-15T03:43:06;20.08;;;8.80;;
73104;SDS011;61296;50.526;30.792;2024-01-15T03:58:38;25.35;;;9.77;;
73104;SDS011;61296;50.526;30.792;2024-01-15T04:14:11;25.00;;;10.20;;
73104;SDS011;61296;50.526;30.792;2024-01-15T04:29:44;17.70;;;8.13;;
73104;SDS011;61296;50.526;30.792;2024-01-15T04:45:17;21.75;;;8.82;;
73104;SDS011;61296;50.526;30.792;2024-01-15T05:00:51;22.30;;;8.90;;
73104;SDS011;61296;50.526;30.792;2024-01-15T05:16:24;17.60;;;8.15;;
73104;SDS011;61296;50.526;30.792;2024-01-15T05:31:57;24.15;;;9.25;;
73104;SDS011;61296;50.526;30.792;2024-01-15T05:47:30;22.45;;;8.82;;
73104;SDS011;61296;50.526;30.792;2024-01-15T06:03:03;23.40;;;9.73;;
73104;SDS011;61296;50.526;30.792;2024-01-15T06:18:36;20.92;;;9.02;;
73104;SDS011;61296;50.526;30.792;2024-01-15T06:34:09;22.85;;;9.18;;
73104;SDS011;61296;50.526;30.792;2024-01-15T06:49:42;17.70;;;7.93;;
73104;SDS011;61296;50.526;30.792;2024-01-15T07:05:15;21.13;;;8.43;;
73104;SDS011;61296;50.526;30.792;2024-01-15T07:20:48;19.77;;;7.55;;
73104;SDS011;61296;50.526;30.792;2024-01-15T07:36:21;20.83;;;8.15;;
73104;SDS011;61296;50.526;30.792;2024-01-15T07:51:54;25.00;;;9.65;;
73104;SDS011;61296;50.526;30.792;2024-01-15T08:07:27;21.02;;;8.88;;
73104;SDS011;61296;50.526;30.792;2024-01-15T08:23:00;21.40;;;8.50;;
73104;SDS011;61296;50.526;30.792;2024-01-15T08:38:32;23.55;;;8.40;;
73104;SDS011;61296;50.526;30.792;2024-01-15T08:54:05;22.45;;;9.32;;
73104;SDS011;61296;50.526;30.792;2024-01-15T09:09:38;20.77;;;8.55;;
73104;SDS011;61296;50.526;30.792;2024-01-15T09:25:11;18.35;;;7.05;;
73104;SDS011;61296;50.526;30.792;2024-01-15T09:40:44;21.65;;;8.13;;
73104;SDS011;61296;50.526;30.792;2024-01-15T09:56:19;18.75;;;7.13;;
73104;SDS011;61296;50.526;30.792;2024-01-15T10:11:52;16.15;;;7.25;;
73104;SDS011;61296;50.526;30.792;2024-01-15T10:27:26;17.25;;;7.35;;
73104;SDS011;61296;50.526;30.792;2024-01-15T10:42:59;15.77;;;6.60;;
73104;SDS011;61296;50.526;30.792;2024-01-15T10:58:32;18.27;;;7.40;;
73104;SDS011;61296;50.526;30.792;2024-01-15T11:14:06;20.67;;;8.38;;
73104;SDS011;61296;50.526;30.792;2024-01-15T11:29:42;17.53;;;7.57;;
73104;SDS011;61296;50.526;30.792;2024-01-15T11:45:15;21.35;;;7.82;;
73104;SDS011;61296;50.526;30.792;2024-01-15T12:00:52;23.50;;;10.57;;
73104;SDS011;61296;50.526;30.792;2024-01-15T12:16:25;18.98;;;8.02;;
73104;SDS011;61296;50.526;30.792;2024-01-15T12:31:58;15.93;;;7.15;;
73104;SDS011;61296;50.526;30.792;2024-01-15T12:47:31;18.33;;;7.00;;
73104;SDS011;61296;50.526;30.792;2024-01-15T13:03:04;17.52;;;8.32;;
73104;SDS011;61296;50.526;30.792;2024-01-15T13:18:37;22.05;;;8.95;;
73104;SDS011;61296;50.526;30.792;2024-01-15T13:34:10;19.92;;;8.63;;
73104;SDS011;61296;50.526;30.792;2024-01-15T13:49:43;19.50;;;8.15;;
73104;SDS011;61296;50.526;30.792;2024-01-15T14:05:16;19.55;;;8.32;;
73104;SDS011;61296;50.526;30.792;2024-01-15T14:20:49;22.30;;;9.57;;
73104;SDS011;61296;50.526;30.792;2024-01-15T14:36:22;25.65;;;10.07;;
73104;SDS011;61296;50.526;30.792;2024-01-15T14:51:55;21.65;;;9.07;;
73104;SDS011;61296;50.526;30.792;2024-01-15T15:07:28;22.50;;;8.73;;
73104;SDS011;61296;50.526;30.792;2024-01-15T15:23:01;23.35;;;9.02;;
73104;SDS011;61296;50.526;30.792;2024-01-15T15:38:34;23.30;;;8.38;;
73104;SDS011;61296;50.526;30.792;2024-01-15T15:54:07;23.48;;;9.07;;
73104;SDS011;61296;50.526;30.792;2024-01-15T16:09:41;25.83;;;9.32;;
73104;SDS011;61296;50.526;30.792;2024-01-15T16:25:15;20.73;;;8.82;;
73104;SDS011;61296;50.526;30.792;2024-01-15T16:40:48;16.45;;;7.70;;
73104;SDS011;61296;50.526;30.792;2024-01-15T16:56:21;21.75;;;9.35;;
73104;SDS011;61296;50.526;30.792;2024-01-15T17:11:55;26.55;;;9.32;;
73104;SDS011;61296;50.526;30.792;2024-01-15T17:27:28;24.42;;;9.77;;
73104;SDS011;61296;50.526;30.792;2024-01-15T17:43:00;30.55;;;10.68;;
73104;SDS011;61296;50.526;30.792;2024-01-15T17:58:34;28.52;;;11.27;;
73104;SDS011;61296;50.526;30.792;2024-01-15T18:14:07;27.98;;;11.20;;
73104;SDS011;61296;50.526;30.792;2024-01-15T18:29:39;30.40;;;13.00;;
73104;SDS011;61296;50.526;30.792;2024-01-15T18:45:12;34.55;;;13.25;;
73104;SDS011;61296;50.526;30.792;2024-01-15T19:00:46;31.33;;;12.70;;
73104;SDS011;61296;50.526;30.792;2024-01-15T19:16:19;30.77;;;12.50;;
73104;SDS011;61296;50.526;30.792;2024-01-15T19:31:54;32.70;;;12.57;;
73104;SDS011;61296;50.526;30.792;2024-01-15T19:47:29;32.00;;;12.68;;
73104;SDS011;61296;50.526;30.792;2024-01-15T20:03:02;34.22;;;13.13;;
73104;SDS011;61296;50.526;30.792;2024-01-15T20:18:35;37.63;;;15.48;;
73104;SDS011;61296;50.526;30.792;2024-01-15T20:34:08;33.58;;;13.60;;
73104;SDS011;61296;50.526;30.792;2024-01-15T20:49:34;30.93;;;12.70;;
73104;SDS011;61296;50.526;30.792;2024-01-15T21:05:07;30.90;;;13.18;;
73104;SDS011;61296;50.526;30.792;2024-01-15T21:20:43;35.58;;;13.23;;
73104;SDS011;61296;50.526;30.792;2024-01-15T21:36:15;41.88;;;14.63;;
73104;SDS011;61296;50.526;30.792;2024-01-15T21:51:48;32.75;;;12.05;;
73104;SDS011;61296;50.526;30.792;2024-01-15T22:07:22;30.05;;;13.13;;
73104;SDS011;61296;50.526;30.792;2024-01-15T22:22:54;27.98;;;10.65;;
73104;SDS011;61296;50.526;30.792;2024-01-15T22:38:28;33.53;;;12.73;;
73104;SDS011;61296;50.526;30.792;2024-01-15T22:54:01;37.10;;;15.85;;
73104;SDS011;61296;50.526;30.792;2024-01-15T23:09:34;40.38;;;15.25;;
73104;SDS011;61296;50.526;30.792;2024-01-15T23:25:08;34.90;;;14.68;;
73104;SDS011;61296;50.526;30.792;2024-01-15T23:40:41;32.95;;;13.25;;
73104;SDS011;61296;50.526;30.792;2024-01-15T23:56:14;30.02;;;13.45;;
